St Ives Cambridgeshire, United Kingdom
Current Conditions -  °F | °C
As of 6:20 PM on Monday 20 Oct 2014 (Local Time) from EGSC Reporting Station
Few Clouds Few Clouds  
Wind Chill: 13°   Ceiling: Unl
Heat Index: 13°   Visibility: 6mi
Dew Point: 10°   Wind: 13mph
Humidity: 82%   Direction: 220°SW
Pressure: 29.91"   Gusts: NA
Location:  52.34°N, 0.07°W
Report Text: EGSC 201720Z 22011KT 170V240 9999 FEW030 13/10 Q1013
Loading
Personal Weather Stations






























Interactive Weather Map
Tropical Storm Tracking
New forecast layout! Learn more

10-Day Weather Forecast

Advertisements
Track Severe Weather on mobile